Time;durP1;ratioP1;P1;durP2;ratioP2;P2;SDS_P1;SDS_P2;PMS_P1;PMS_P2;Temp;Humidity;BMP_temperature;BMP_pressure;BME280_temperature;BME280_humidity;BME280_pressure;Samples;Min_cycle;Max_cycle;Signal;HPM_P1;HPM_P2
2022/09/20 00:01:13;;;;;;;8.10;2.50;;;13.60;77.10;;;;;;5045318;28;20959;-73
2022/09/20 00:03:43;;;;;;;6.67;2.10;;;13.60;77.10;;;;;;5044111;28;20594;-75
2022/09/20 00:06:13;;;;;;;9.30;1.87;;;13.60;77.10;;;;;;5043682;28;21158;-73
2022/09/20 00:08:41;;;;;;;8.40;2.00;;;13.60;77.20;;;;;;5041122;28;20478;-74
2022/09/20 00:11:14;;;;;;;9.83;2.80;;;13.60;77.20;;;;;;5046253;28;20550;-75
2022/09/20 00:13:45;;;;;;;6.50;2.40;;;13.60;77.20;;;;;;5042400;28;20479;-75
2022/09/20 00:16:15;;;;;;;7.27;1.93;;;13.60;77.10;;;;;;5042276;28;20460;-73
2022/09/20 00:18:43;;;;;;;8.07;2.20;;;13.60;77.10;;;;;;5048686;28;20801;-73
2022/09/20 00:21:16;;;;;;;5.70;1.80;;;13.50;77.10;;;;;;5044659;28;20465;-73
2022/09/20 00:23:44;;;;;;;6.37;2.23;;;13.50;77.10;;;;;;5052237;28;20521;-74
2022/09/20 00:26:13;;;;;;;9.93;2.30;;;13.50;77.00;;;;;;5041446;28;20458;-73
2022/09/20 00:28:42;;;;;;;7.87;2.23;;;13.50;77.10;;;;;;5039196;28;20446;-75
2022/09/20 00:31:11;;;;;;;10.17;2.47;;;13.50;77.10;;;;;;5047065;28;21116;-74
2022/09/20 00:36:26;;;;;;;9.17;2.60;;;13.40;77.10;;;;;;5044126;28;20541;-74
2022/09/20 00:38:56;;;;;;;7.80;2.83;;;13.40;77.10;;;;;;5051875;28;20468;-75
2022/09/20 00:41:24;;;;;;;7.93;1.83;;;13.40;77.10;;;;;;5043370;28;20447;-75
2022/09/20 00:43:54;;;;;;;11.40;3.20;;;13.40;77.10;;;;;;5033305;28;20479;-74
2022/09/20 00:46:27;;;;;;;8.17;2.30;;;13.40;77.10;;;;;;5044104;28;20465;-74
2022/09/20 00:48:59;;;;;;;7.70;2.43;;;13.40;77.10;;;;;;5043260;28;20458;-75
2022/09/20 00:51:30;;;;;;;6.73;2.30;;;13.40;77.20;;;;;;5053870;28;20517;-74
2022/09/20 00:54:02;;;;;;;9.33;2.77;;;13.30;77.20;;;;;;5052133;28;20538;-75
2022/09/20 00:56:33;;;;;;;9.03;2.37;;;13.30;77.20;;;;;;5043730;28;21197;-74
2022/09/20 00:59:11;;;;;;;11.00;2.43;;;13.30;77.30;;;;;;5046592;28;20451;-73
2022/09/20 01:01:39;;;;;;;10.33;2.50;;;13.30;77.40;;;;;;5045175;28;20546;-74
2022/09/20 01:04:08;;;;;;;6.57;2.00;;;13.30;77.40;;;;;;5057792;28;20529;-73
2022/09/20 01:06:36;;;;;;;5.10;1.53;;;13.30;77.50;;;;;;5046501;28;20465;-73
2022/09/20 01:09:06;;;;;;;4.50;1.90;;;13.40;77.50;;;;;;5055680;28;20463;-75
2022/09/20 01:11:35;;;;;;;7.23;2.10;;;13.40;77.50;;;;;;5047475;28;20463;-74
2022/09/20 01:14:04;;;;;;;11.83;3.50;;;13.40;77.50;;;;;;5044905;28;20906;-74
2022/09/20 01:16:33;;;;;;;19.33;7.70;;;13.40;77.50;;;;;;5045943;28;20829;-74
2022/09/20 01:19:08;;;;;;;21.93;9.20;;;13.40;77.40;;;;;;5045547;28;20878;-74
2022/09/20 01:21:36;;;;;;;22.23;7.07;;;13.30;77.40;;;;;;5047376;28;20462;-73
2022/09/20 01:24:12;;;;;;;16.33;5.77;;;13.30;77.50;;;;;;5044721;28;20923;-75
2022/09/20 01:27:03;;;;;;;13.67;3.87;;;13.30;77.50;;;;;;5041147;28;20483;-75
2022/09/20 01:30:06;;;;;;;14.87;4.27;;;13.30;77.50;;;;;;5047571;28;20521;-73
2022/09/20 01:32:50;;;;;;;16.30;3.60;;;13.30;77.60;;;;;;5039484;28;20908;-75
2022/09/20 01:35:20;;;;;;;9.37;3.07;;;13.20;77.70;;;;;;5043627;28;20459;-75
2022/09/20 01:38:04;;;;;;;10.00;3.73;;;13.20;77.80;;;;;;5046079;28;20479;-73
2022/09/20 01:40:43;;;;;;;11.00;2.83;;;13.20;77.80;;;;;;5050023;28;20447;-74
2022/09/20 01:43:18;;;;;;;7.37;2.40;;;13.20;77.80;;;;;;5056271;28;20933;-74
2022/09/20 01:45:49;;;;;;;9.50;2.40;;;13.30;77.80;;;;;;5045608;28;20490;-74
2022/09/20 01:48:26;;;;;;;8.87;2.77;;;13.30;77.90;;;;;;5047945;28;20449;-75
2022/09/20 01:51:34;;;;;;;11.23;2.50;;;13.30;77.90;;;;;;5045191;28;20547;-73
2022/09/20 01:54:42;;;;;;;7.07;2.30;;;13.30;77.80;;;;;;5030452;28;20528;-73
2022/09/20 01:57:43;;;;;;;7.20;2.70;;;13.30;77.80;;;;;;5044926;28;20522;-74
2022/09/20 02:00:14;;;;;;;7.73;2.23;;;13.30;77.80;;;;;;5038314;28;20463;-74
2022/09/20 02:03:17;;;;;;;6.17;2.20;;;13.30;77.80;;;;;;5047711;28;20601;-74
2022/09/20 02:06:04;;;;;;;7.00;2.83;;;13.30;77.80;;;;;;5042455;28;20494;-74
2022/09/20 02:08:47;;;;;;;9.77;2.43;;;13.20;77.80;;;;;;5045852;28;20825;-75
2022/09/20 02:11:17;;;;;;;10.10;3.00;;;13.20;77.80;;;;;;5041489;28;20504;-75
2022/09/20 02:14:05;;;;;;;7.70;2.70;;;13.20;77.80;;;;;;5039135;28;20478;-74
2022/09/20 02:16:48;;;;;;;14.17;3.00;;;13.20;77.80;;;;;;5049944;28;20451;-73
2022/09/20 02:19:41;;;;;;;13.43;2.67;;;13.20;77.80;;;;;;5034632;28;20958;-74
2022/09/20 02:22:18;;;;;;;8.20;2.70;;;13.20;77.80;;;;;;5042820;28;20985;-75
2022/09/20 02:24:54;;;;;;;8.77;3.37;;;13.10;77.80;;;;;;5049328;28;20517;-74
2022/09/20 02:27:27;;;;;;;13.13;4.17;;;13.10;77.80;;;;;;5046794;28;20842;-74
2022/09/20 02:30:07;;;;;;;7.97;3.20;;;13.10;77.70;;;;;;5041622;28;20486;-74
2022/09/20 02:32:51;;;;;;;8.27;3.10;;;13.00;77.70;;;;;;5042219;28;21023;-75
2022/09/20 02:35:32;;;;;;;7.63;2.63;;;13.00;77.70;;;;;;5046919;28;20502;-74
2022/09/20 02:38:21;;;;;;;9.97;2.73;;;13.00;77.70;;;;;;5046059;28;20462;-75
2022/09/20 02:41:21;;;;;;;10.03;3.30;;;13.00;77.80;;;;;;5043976;28;20469;-74
2022/09/20 02:44:03;;;;;;;11.90;3.20;;;13.00;77.80;;;;;;5044520;28;20569;-75
2022/09/20 02:46:40;;;;;;;10.90;3.60;;;12.90;77.80;;;;;;5044618;28;20448;-74
2022/09/20 02:49:15;;;;;;;7.77;3.20;;;12.90;77.80;;;;;;5043689;28;20451;-73
2022/09/20 02:51:51;;;;;;;11.63;3.83;;;12.90;77.90;;;;;;5041937;28;20474;-73
2022/09/20 02:54:37;;;;;;;9.93;3.57;;;12.90;77.80;;;;;;5047474;28;20526;-73
2022/09/20 02:57:15;;;;;;;9.97;3.40;;;12.90;77.90;;;;;;5039690;28;20474;-75
2022/09/20 02:59:50;;;;;;;9.60;3.00;;;12.90;77.90;;;;;;5044583;28;20451;-74
2022/09/20 03:02:25;;;;;;;11.03;3.37;;;12.90;77.90;;;;;;5046817;28;20515;-74
2022/09/20 03:05:08;;;;;;;10.60;3.70;;;12.90;77.90;;;;;;5045143;28;20470;-74
2022/09/20 03:07:47;;;;;;;8.97;4.40;;;12.90;77.90;;;;;;5044198;28;20490;-75
2022/09/20 03:10:22;;;;;;;10.20;5.17;;;12.90;77.90;;;;;;5046941;28;20540;-72
2022/09/20 03:13:06;;;;;;;10.70;3.63;;;12.80;77.90;;;;;;5038423;28;20527;-73
2022/09/20 03:15:45;;;;;;;11.07;3.60;;;12.80;78.10;;;;;;5045232;28;20450;-75
2022/09/20 03:18:16;;;;;;;7.97;3.70;;;12.80;78.20;;;;;;5047582;28;20535;-74
2022/09/20 03:20:55;;;;;;;9.20;3.73;;;12.80;78.20;;;;;;5045532;28;21361;-75
2022/09/20 03:23:40;;;;;;;6.63;3.17;;;12.80;78.20;;;;;;5043341;28;20479;-74
2022/09/20 03:26:20;;;;;;;16.30;4.40;;;12.80;78.20;;;;;;5046511;28;20514;-73
2022/09/20 03:28:58;;;;;;;9.07;4.07;;;12.80;78.20;;;;;;5046275;28;20451;-74
2022/09/20 03:31:43;;;;;;;10.53;4.37;;;12.80;78.20;;;;;;5045445;28;20515;-75
2022/09/20 03:34:24;;;;;;;13.93;3.93;;;12.70;78.20;;;;;;5043901;28;21042;-74
2022/09/20 03:37:13;;;;;;;11.17;4.27;;;12.70;78.20;;;;;;5043821;28;20542;-75
2022/09/20 03:40:03;;;;;;;14.33;4.43;;;12.70;78.30;;;;;;5044725;28;20447;-73
2022/09/20 03:42:32;;;;;;;9.90;4.43;;;12.70;78.30;;;;;;5043423;28;20452;-75
2022/09/20 03:45:26;;;;;;;10.70;4.60;;;12.70;78.20;;;;;;5036668;28;20908;-72
2022/09/20 03:48:20;;;;;;;12.10;4.47;;;12.70;78.30;;;;;;5044345;28;20463;-74
2022/09/20 03:51:12;;;;;;;13.87;4.50;;;12.70;78.30;;;;;;5044979;28;21020;-75
2022/09/20 03:54:10;;;;;;;9.47;4.20;;;12.60;78.40;;;;;;5041371;28;20483;-73
2022/09/20 03:57:06;;;;;;;9.57;4.17;;;12.60;78.40;;;;;;5044766;28;20530;-74
2022/09/20 03:59:51;;;;;;;8.17;4.30;;;12.60;78.40;;;;;;5045070;28;20498;-73
2022/09/20 04:02:36;;;;;;;12.07;4.23;;;12.60;78.50;;;;;;5036555;28;20463;-75
2022/09/20 04:05:10;;;;;;;17.10;4.30;;;12.60;78.50;;;;;;5042613;28;20537;-74
2022/09/20 04:07:49;;;;;;;8.40;4.17;;;12.60;78.50;;;;;;5046738;28;20459;-74
2022/09/20 04:10:29;;;;;;;9.83;4.53;;;12.60;78.50;;;;;;5042914;28;20554;-74
2022/09/20 04:13:15;;;;;;;12.17;4.43;;;12.60;78.50;;;;;;5047144;28;20554;-74
2022/09/20 04:15:51;;;;;;;13.93;3.90;;;12.60;78.40;;;;;;5050244;28;20450;-74
2022/09/20 04:18:28;;;;;;;10.90;5.00;;;12.60;78.40;;;;;;5049804;28;20964;-74
2022/09/20 04:21:03;;;;;;;11.43;5.30;;;12.50;78.40;;;;;;5048603;28;20479;-74
2022/09/20 04:23:41;;;;;;;11.57;5.27;;;12.50;78.40;;;;;;5056874;28;20505;-75
2022/09/20 04:26:09;;;;;;;12.00;5.33;;;12.50;78.50;;;;;;5048808;28;20537;-74
2022/09/20 04:28:43;;;;;;;12.50;5.60;;;12.50;78.50;;;;;;5048505;28;20483;-74
2022/09/20 04:31:23;;;;;;;18.13;7.50;;;12.50;78.60;;;;;;5046422;28;20459;-74
2022/09/20 04:33:54;;;;;;;10.30;5.83;;;12.50;78.60;;;;;;5046152;28;20558;-74
2022/09/20 04:36:35;;;;;;;13.43;5.60;;;12.40;78.70;;;;;;5041709;28;20516;-74
2022/09/20 04:39:15;;;;;;;15.80;5.97;;;12.50;78.70;;;;;;5049220;28;20548;-74
2022/09/20 04:42:14;;;;;;;10.43;5.90;;;12.50;78.80;;;;;;5049586;28;20507;-75
2022/09/20 04:45:15;;;;;;;16.63;6.30;;;12.50;78.80;;;;;;5026279;28;21032;-74
2022/09/20 04:48:36;;;;;;;15.20;6.50;;;12.50;78.80;;;;;;5047956;28;20519;-74
2022/09/20 04:51:33;;;;;;;16.60;6.17;;;12.50;78.90;;;;;;4975886;28;20742;-74
2022/09/20 04:54:44;;;;;;;9.77;5.33;;;12.50;79.00;;;;;;5052401;28;20498;-74
2022/09/20 04:57:36;;;;;;;10.47;4.73;;;12.50;78.90;;;;;;5032099;28;20536;-74
2022/09/20 05:00:09;;;;;;;18.70;6.30;;;12.50;79.00;;;;;;5049075;28;20443;-74
2022/09/20 05:03:15;;;;;;;17.40;5.90;;;12.50;79.00;;;;;;5045879;28;20533;-74
2022/09/20 05:06:11;;;;;;;14.30;6.03;;;12.50;79.00;;;;;;5046077;28;20472;-74
2022/09/20 05:09:03;;;;;;;12.27;5.47;;;12.50;79.00;;;;;;5040790;28;20466;-72
2022/09/20 05:11:58;;;;;;;13.27;5.83;;;12.50;79.10;;;;;;5050286;28;20452;-74
2022/09/20 05:14:43;;;;;;;17.77;6.20;;;12.50;79.20;;;;;;5040931;28;21081;-74
2022/09/20 05:17:25;;;;;;;12.37;6.27;;;12.50;79.20;;;;;;5045806;28;20447;-74
2022/09/20 05:20:15;;;;;;;8.53;5.77;;;12.50;79.20;;;;;;5045262;28;20495;-75
2022/09/20 05:23:14;;;;;;;11.53;5.97;;;12.50;79.30;;;;;;5036872;28;20959;-75
2022/09/20 05:26:07;;;;;;;15.83;6.17;;;12.60;79.30;;;;;;5045471;28;20534;-75
2022/09/20 05:28:44;;;;;;;9.30;6.30;;;12.60;79.30;;;;;;5048226;28;20473;-74
2022/09/20 05:31:15;;;;;;;10.63;6.47;;;12.60;79.30;;;;;;5057707;28;20546;-73
2022/09/20 05:33:50;;;;;;;18.00;7.70;;;12.60;79.30;;;;;;5044252;28;20532;-75
2022/09/20 05:36:26;;;;;;;12.80;7.60;;;12.60;79.30;;;;;;5048952;28;20438;-73
2022/09/20 05:39:08;;;;;;;11.13;6.40;;;12.60;79.30;;;;;;5047334;28;20454;-74
2022/09/20 05:41:43;;;;;;;16.47;7.60;;;12.70;79.40;;;;;;5044669;28;20531;-74
2022/09/20 05:44:22;;;;;;;14.53;8.03;;;12.70;79.40;;;;;;5047006;28;20493;-75
2022/09/20 05:47:00;;;;;;;16.17;8.07;;;12.70;79.40;;;;;;5044761;28;20549;-75
2022/09/20 05:49:40;;;;;;;12.97;7.53;;;12.70;79.40;;;;;;5048389;28;20454;-74
2022/09/20 05:52:29;;;;;;;14.73;7.33;;;12.70;79.40;;;;;;5046806;28;20447;-74
2022/09/20 05:55:20;;;;;;;17.90;7.47;;;12.70;79.40;;;;;;5048190;28;20927;-74
2022/09/20 05:58:00;;;;;;;19.13;8.43;;;12.70;79.40;;;;;;5037855;28;20467;-74
2022/09/20 06:00:33;;;;;;;12.00;7.80;;;12.80;79.50;;;;;;5046505;28;20636;-75
2022/09/20 06:03:09;;;;;;;17.87;6.83;;;12.80;79.50;;;;;;5043396;28;20470;-75
2022/09/20 06:05:52;;;;;;;12.10;7.27;;;12.80;79.50;;;;;;5044807;28;20609;-75
2022/09/20 06:08:38;;;;;;;13.60;7.10;;;12.80;79.50;;;;;;5048576;28;20446;-75
2022/09/20 06:11:21;;;;;;;15.63;7.67;;;12.80;79.50;;;;;;5044850;28;20467;-75
2022/09/20 06:14:02;;;;;;;14.80;7.10;;;12.80;79.50;;;;;;5042957;28;20478;-74
2022/09/20 06:16:41;;;;;;;11.13;6.30;;;12.90;79.50;;;;;;5049358;28;21278;-74
2022/09/20 06:19:18;;;;;;;17.40;6.70;;;12.90;79.50;;;;;;5046018;28;20542;-75
2022/09/20 06:21:51;;;;;;;12.27;7.40;;;12.90;79.60;;;;;;5035043;28;20516;-75
2022/09/20 06:24:32;;;;;;;14.67;6.63;;;12.90;79.60;;;;;;5050245;28;20566;-74
2022/09/20 06:27:07;;;;;;;15.00;6.13;;;13.00;79.60;;;;;;5045512;28;20570;-75
2022/09/20 06:29:39;;;;;;;14.80;7.03;;;13.00;79.60;;;;;;5046774;28;21154;-74
2022/09/20 06:32:07;;;;;;;11.57;5.57;;;13.00;79.50;;;;;;5045380;28;20463;-75
2022/09/20 06:34:35;;;;;;;14.10;6.57;;;13.00;79.50;;;;;;5045978;28;20536;-74
2022/09/20 06:43:15;;;;;;;14.83;6.63;;;13.10;79.50;;;;;;5039432;28;20530;-74
2022/09/20 06:45:43;;;;;;;17.77;6.87;;;13.10;79.60;;;;;;5060187;28;21278;-74
2022/09/20 06:48:12;;;;;;;15.03;6.73;;;13.10;79.50;;;;;;5041851;28;20439;-74
2022/09/20 06:50:43;;;;;;;12.80;6.00;;;13.20;79.60;;;;;;5038704;28;21103;-74
2022/09/20 06:53:16;;;;;;;16.27;5.73;;;13.20;79.50;;;;;;5046527;28;20551;-74
2022/09/20 06:55:46;;;;;;;19.63;8.83;;;13.20;79.40;;;;;;5041036;28;20514;-74
2022/09/20 06:58:14;;;;;;;19.87;6.10;;;13.20;79.50;;;;;;5044119;28;20530;-74
2022/09/20 07:00:42;;;;;;;139.90;16.53;;;13.20;79.50;;;;;;5042357;28;20474;-74
2022/09/20 07:03:11;;;;;;;62.67;11.50;;;13.30;79.40;;;;;;5042698;28;20490;-72
2022/09/20 07:05:39;;;;;;;21.80;6.20;;;13.30;79.50;;;;;;5043093;28;20482;-74
2022/09/20 07:08:07;;;;;;;18.57;6.20;;;13.30;79.50;;;;;;5040522;28;20490;-74
2022/09/20 07:10:37;;;;;;;17.57;5.43;;;13.30;79.50;;;;;;5038331;28;20453;-75
2022/09/20 07:13:05;;;;;;;22.83;5.57;;;13.30;79.40;;;;;;5043785;28;20518;-74
2022/09/20 07:15:34;;;;;;;12.57;5.47;;;13.30;79.30;;;;;;5045836;28;20528;-73
2022/09/20 07:18:02;;;;;;;21.30;6.87;;;13.30;79.30;;;;;;5045148;28;20456;-76
2022/09/20 07:20:30;;;;;;;15.80;6.40;;;13.30;79.40;;;;;;5045478;28;20867;-75
2022/09/20 07:22:58;;;;;;;14.93;5.53;;;13.30;79.30;;;;;;5043988;28;20490;-74
2022/09/20 07:25:26;;;;;;;8.77;5.10;;;13.30;79.20;;;;;;5043031;28;20949;-76
2022/09/20 07:27:56;;;;;;;12.50;5.20;;;13.30;79.20;;;;;;5042717;28;20483;-75
2022/09/20 07:30:24;;;;;;;16.63;5.33;;;13.30;79.20;;;;;;5043955;28;20491;-75
2022/09/20 07:32:52;;;;;;;12.47;5.17;;;13.20;79.20;;;;;;5048048;28;20476;-74
2022/09/20 07:35:20;;;;;;;14.93;5.67;;;13.30;79.20;;;;;;5047548;28;20455;-74
2022/09/20 07:37:48;;;;;;;28.90;15.90;;;13.30;79.30;;;;;;5045935;28;20952;-75
2022/09/20 07:40:16;;;;;;;19.63;7.40;;;13.30;79.30;;;;;;5045404;28;20452;-75
2022/09/20 07:42:45;;;;;;;11.80;5.67;;;13.30;79.20;;;;;;5042650;28;20487;-76
2022/09/20 07:45:14;;;;;;;11.53;5.23;;;13.30;79.10;;;;;;5045132;28;21038;-75
2022/09/20 07:47:43;;;;;;;14.50;5.97;;;13.30;79.20;;;;;;5041951;28;20471;-75
2022/09/20 07:50:11;;;;;;;18.87;5.50;;;13.30;79.20;;;;;;5042455;28;20471;-75
2022/09/20 07:52:39;;;;;;;16.80;6.27;;;13.30;79.10;;;;;;5042895;28;20532;-75
2022/09/20 07:55:08;;;;;;;10.80;5.80;;;13.30;79.20;;;;;;5047912;28;20463;-75
2022/09/20 07:57:37;;;;;;;10.93;5.07;;;13.40;79.20;;;;;;5043589;28;20965;-74
2022/09/20 08:00:07;;;;;;;11.27;5.33;;;13.40;79.10;;;;;;5047317;28;20508;-75
2022/09/20 08:02:40;;;;;;;14.43;4.47;;;13.40;79.00;;;;;;5039728;28;20477;-75
2022/09/20 08:05:08;;;;;;;12.33;4.43;;;13.30;78.90;;;;;;5043581;28;20454;-75
2022/09/20 08:07:37;;;;;;;17.90;4.90;;;13.40;79.10;;;;;;5040671;28;20483;-75
2022/09/20 08:10:06;;;;;;;10.33;4.47;;;13.40;79.10;;;;;;5041868;28;20560;-75
2022/09/20 08:12:34;;;;;;;15.37;4.90;;;13.40;79.10;;;;;;5045320;28;20455;-74
2022/09/20 08:15:23;;;;;;;11.40;4.50;;;13.50;79.20;;;;;;5042694;28;20578;-75
2022/09/20 08:17:52;;;;;;;10.73;5.30;;;13.50;79.20;;;;;;5042865;28;20512;-75
2022/09/20 08:20:20;;;;;;;10.40;5.43;;;13.60;78.90;;;;;;5039756;28;20467;-76
2022/09/20 08:22:48;;;;;;;14.80;4.60;;;13.60;79.10;;;;;;5045136;28;20454;-75
2022/09/20 08:25:38;;;;;;;11.03;4.23;;;13.60;79.20;;;;;;5045013;28;20456;-75
2022/09/20 08:28:06;;;;;;;9.67;5.20;;;13.70;79.20;;;;;;5043940;28;20525;-75
2022/09/20 08:30:34;;;;;;;11.63;4.33;;;13.70;79.20;;;;;;5044755;28;20459;-75
2022/09/20 08:33:05;;;;;;;9.47;4.43;;;13.80;79.00;;;;;;5037232;28;20500;-75
2022/09/20 08:35:35;;;;;;;15.90;5.17;;;13.80;79.00;;;;;;5048970;28;20458;-75
2022/09/20 08:38:06;;;;;;;14.03;4.73;;;13.90;78.90;;;;;;5037640;28;20447;-75
2022/09/20 08:40:57;;;;;;;14.47;5.53;;;13.90;78.80;;;;;;5043753;28;21333;-74
2022/09/20 08:43:29;;;;;;;11.90;4.23;;;13.90;78.60;;;;;;5045862;28;21169;-75
2022/09/20 08:45:59;;;;;;;9.27;3.60;;;13.90;78.40;;;;;;5042840;28;20455;-75
2022/09/20 08:48:34;;;;;;;10.57;3.37;;;13.90;78.50;;;;;;5044947;28;20592;-75
2022/09/20 08:51:05;;;;;;;8.53;3.50;;;14.00;78.60;;;;;;5038127;28;20505;-75
2022/09/20 08:53:33;;;;;;;14.67;4.00;;;14.10;78.50;;;;;;5051018;28;20547;-75
2022/09/20 08:56:03;;;;;;;13.33;4.23;;;14.10;78.50;;;;;;5045178;28;20460;-76
2022/09/20 08:58:31;;;;;;;10.63;4.50;;;14.10;78.40;;;;;;5045515;28;20461;-74
2022/09/20 09:00:59;;;;;;;13.43;4.33;;;14.20;78.30;;;;;;5044488;28;20542;-74
2022/09/20 09:03:28;;;;;;;20.47;4.90;;;14.20;78.10;;;;;;5049837;28;20504;-76
2022/09/20 09:05:58;;;;;;;10.10;4.00;;;14.20;78.10;;;;;;5042073;28;20513;-76
2022/09/20 09:08:29;;;;;;;11.17;4.57;;;14.20;78.10;;;;;;5046231;28;20504;-76
2022/09/20 09:11:07;;;;;;;15.67;4.30;;;14.20;78.00;;;;;;5045907;28;20470;-76
2022/09/20 09:13:41;;;;;;;11.53;3.70;;;14.20;77.90;;;;;;5047533;28;20478;-74
2022/09/20 09:16:13;;;;;;;8.80;3.70;;;14.20;77.80;;;;;;5049905;28;21303;-75
2022/09/20 09:18:44;;;;;;;10.73;3.77;;;14.20;77.80;;;;;;5049860;28;20463;-75
2022/09/20 09:21:19;;;;;;;8.30;3.50;;;14.20;77.80;;;;;;5053134;28;20449;-76
2022/09/20 09:23:53;;;;;;;11.13;3.10;;;14.20;77.80;;;;;;5046562;28;21049;-74
2022/09/20 09:26:23;;;;;;;12.30;3.60;;;14.20;77.70;;;;;;5050281;28;20450;-74
2022/09/20 09:29:16;;;;;;;7.87;3.13;;;14.30;77.60;;;;;;5066045;28;20923;-76
2022/09/20 09:31:45;;;;;;;16.37;3.13;;;14.30;77.50;;;;;;5044658;28;20444;-76
2022/09/20 09:34:24;;;;;;;9.00;3.00;;;14.30;77.40;;;;;;5047782;28;20466;-74
2022/09/20 09:36:54;;;;;;;8.80;2.97;;;14.30;77.20;;;;;;5043734;28;20509;-74
2022/09/20 09:39:27;;;;;;;11.67;2.73;;;14.30;77.20;;;;;;5049092;28;20460;-73
2022/09/20 09:41:59;;;;;;;9.93;3.23;;;14.40;76.90;;;;;;5047224;28;20531;-73
2022/09/20 09:44:29;;;;;;;9.17;2.53;;;14.30;76.90;;;;;;5040702;28;20485;-75
2022/09/20 09:46:58;;;;;;;10.60;2.80;;;14.30;76.90;;;;;;5048319;28;20623;-74
2022/09/20 09:49:28;;;;;;;11.80;3.10;;;14.40;76.90;;;;;;5050447;28;20576;-75
2022/09/20 09:52:13;;;;;;;11.10;3.23;;;14.40;76.90;;;;;;5039863;28;20451;-74
2022/09/20 09:54:46;;;;;;;11.43;3.20;;;14.50;77.00;;;;;;5047773;28;20533;-74
2022/09/20 09:57:32;;;;;;;10.03;2.83;;;14.50;76.80;;;;;;5053774;28;20489;-76
2022/09/20 10:00:11;;;;;;;10.77;3.27;;;14.60;76.60;;;;;;5046330;28;20463;-74
2022/09/20 10:03:17;;;;;;;8.33;3.07;;;14.60;76.50;;;;;;5039157;28;20972;-75
2022/09/20 10:05:59;;;;;;;18.03;3.67;;;14.60;76.40;;;;;;5048954;28;20459;-74
2022/09/20 10:08:36;;;;;;;12.63;2.53;;;14.60;76.40;;;;;;5054659;28;20573;-73
2022/09/20 10:11:18;;;;;;;8.57;2.63;;;14.60;76.30;;;;;;5042804;28;20467;-75
2022/09/20 10:13:53;;;;;;;12.00;3.20;;;14.60;76.30;;;;;;5061909;28;21038;-76
2022/09/20 10:16:31;;;;;;;14.30;3.70;;;14.60;76.10;;;;;;5044535;28;20460;-76
2022/09/20 10:19:06;;;;;;;13.33;3.30;;;14.60;76.00;;;;;;5048042;28;20990;-75
2022/09/20 10:21:47;;;;;;;10.63;3.33;;;14.60;76.00;;;;;;5052590;28;21129;-76
2022/09/20 10:24:40;;;;;;;9.43;3.40;;;14.60;76.00;;;;;;5046134;28;20995;-76
2022/09/20 10:27:24;;;;;;;9.30;3.47;;;14.60;75.90;;;;;;5048589;28;20457;-76
2022/09/20 10:30:04;;;;;;;12.87;3.47;;;14.60;75.90;;;;;;5047748;28;20490;-74
2022/09/20 10:32:52;;;;;;;11.83;3.60;;;14.60;75.90;;;;;;5046782;28;20469;-74
2022/09/20 10:35:26;;;;;;;10.40;2.77;;;14.60;75.70;;;;;;5042065;28;20471;-76
2022/09/20 10:38:11;;;;;;;9.60;2.27;;;14.60;75.70;;;;;;5048760;28;20983;-74
2022/09/20 10:43:52;;;;;;;9.37;2.63;;;14.60;75.40;;;;;;5048166;28;20475;-74
2022/09/20 10:46:31;;;;;;;7.30;2.13;;;14.60;75.10;;;;;;5046797;28;21032;-76
2022/09/20 10:49:06;;;;;;;8.93;2.57;;;14.70;75.10;;;;;;5048269;28;20569;-76
2022/09/20 10:51:46;;;;;;;8.90;2.30;;;14.70;75.00;;;;;;5041021;28;20474;-74
2022/09/20 10:54:25;;;;;;;6.80;1.67;;;14.70;74.40;;;;;;5051600;28;20473;-76
2022/09/20 10:57:19;;;;;;;10.00;2.50;;;14.70;74.20;;;;;;5044298;28;20451;-74
2022/09/20 10:59:52;;;;;;;9.17;1.93;;;14.70;74.10;;;;;;5049621;28;20451;-76
2022/09/20 11:02:45;;;;;;;11.03;2.00;;;14.70;74.00;;;;;;5038651;28;20481;-74
2022/09/20 11:05:25;;;;;;;9.27;1.90;;;14.80;74.00;;;;;;5046226;28;20486;-76
2022/09/20 11:08:02;;;;;;;15.03;4.70;;;14.80;73.80;;;;;;5041935;28;20442;-75
2022/09/20 11:10:36;;;;;;;52.00;27.47;;;14.80;73.70;;;;;;5043318;28;20439;-76
2022/09/20 11:13:12;;;;;;;23.17;13.40;;;14.80;73.50;;;;;;5044150;28;21393;-76
2022/09/20 11:15:46;;;;;;;10.50;5.00;;;14.90;73.40;;;;;;5045729;28;20451;-76
2022/09/20 11:18:22;;;;;;;11.73;2.80;;;14.90;73.00;;;;;;5042372;28;20458;-75
2022/09/20 11:20:59;;;;;;;7.20;2.20;;;14.90;72.70;;;;;;5041009;28;20512;-76
2022/09/20 11:23:36;;;;;;;10.03;2.33;;;14.80;72.50;;;;;;5046844;28;20568;-76
2022/09/20 11:26:11;;;;;;;12.13;2.47;;;14.80;72.60;;;;;;5037915;28;20512;-76
2022/09/20 11:28:45;;;;;;;11.50;2.30;;;14.80;72.20;;;;;;5052759;28;20975;-75
2022/09/20 11:31:22;;;;;;;23.83;3.10;;;14.90;72.10;;;;;;5064883;28;20889;-76
2022/09/20 11:33:55;;;;;;;38.43;4.53;;;14.90;72.20;;;;;;5038729;28;20494;-74
2022/09/20 11:36:29;;;;;;;11.37;2.47;;;14.90;72.10;;;;;;5044274;28;20463;-74
2022/09/20 11:39:02;;;;;;;47.57;8.10;;;15.00;71.90;;;;;;5047305;28;20697;-73
2022/09/20 11:41:31;;;;;;;34.20;9.17;;;15.00;71.90;;;;;;5042348;28;20481;-75
2022/09/20 11:44:05;;;;;;;10.90;4.10;;;15.00;71.70;;;;;;5045403;28;20510;-76
2022/09/20 11:46:38;;;;;;;11.23;2.90;;;15.10;71.80;;;;;;5042634;28;20864;-74
2022/09/20 11:49:14;;;;;;;8.60;1.93;;;15.10;71.60;;;;;;5043783;28;20524;-74
2022/09/20 11:52:19;;;;;;;10.50;2.27;;;15.10;71.40;;;;;;5045570;28;20497;-76
2022/09/20 11:55:09;;;;;;;7.47;1.97;;;15.20;71.20;;;;;;5038566;28;20497;-76
2022/09/20 11:57:38;;;;;;;8.60;2.20;;;15.20;71.10;;;;;;5034043;28;20452;-76
2022/09/20 12:00:09;;;;;;;11.73;2.10;;;15.30;70.80;;;;;;5043285;28;20888;-74
2022/09/20 12:02:46;;;;;;;6.67;2.10;;;15.30;70.60;;;;;;5041354;28;20465;-76
2022/09/20 12:05:29;;;;;;;8.83;2.17;;;15.30;70.70;;;;;;5046585;28;20914;-75
2022/09/20 12:07:59;;;;;;;6.70;1.57;;;15.30;70.50;;;;;;5043110;28;20471;-74
2022/09/20 12:10:31;;;;;;;7.90;2.17;;;15.30;70.50;;;;;;5044153;28;20564;-76
2022/09/20 12:13:01;;;;;;;10.00;2.37;;;15.30;70.30;;;;;;5045376;28;20520;-76
2022/09/20 12:15:34;;;;;;;13.73;2.70;;;15.30;70.20;;;;;;5049615;28;20473;-76
2022/09/20 12:18:14;;;;;;;17.67;2.50;;;15.30;70.20;;;;;;5042574;28;20463;-75
2022/09/20 12:21:14;;;;;;;7.10;2.20;;;15.20;69.80;;;;;;5058345;28;20482;-75
2022/09/20 12:24:00;;;;;;;8.23;2.40;;;15.30;70.20;;;;;;5049047;28;21074;-74
2022/09/20 12:26:42;;;;;;;7.10;2.60;;;15.30;70.40;;;;;;5050037;28;20983;-75
2022/09/20 12:29:49;;;;;;;9.37;2.00;;;15.40;70.60;;;;;;5038040;28;20548;-75
2022/09/20 12:32:55;;;;;;;7.93;2.10;;;15.50;70.60;;;;;;5042808;28;20450;-74
2022/09/20 12:36:14;;;;;;;8.93;2.10;;;15.60;70.50;;;;;;5042546;28;20459;-73
2022/09/20 12:39:00;;;;;;;25.00;2.90;;;15.70;70.40;;;;;;5045029;28;20451;-77
2022/09/20 12:41:43;;;;;;;36.97;5.40;;;15.80;70.40;;;;;;5048761;28;20471;-76
2022/09/20 12:44:28;;;;;;;19.87;3.77;;;15.90;70.40;;;;;;5043153;28;20917;-75
2022/09/20 12:46:59;;;;;;;11.20;2.17;;;15.90;69.90;;;;;;5048060;28;21267;-73
2022/09/20 12:52:55;;;;;;;15.47;2.40;;;15.80;69.80;;;;;;5017929;28;20461;-74
2022/09/20 12:55:44;;;;;;;157.23;12.10;;;15.70;69.80;;;;;;5049206;28;21164;-75
2022/09/20 12:58:23;;;;;;;13.40;1.90;;;15.70;69.80;;;;;;5062395;28;20473;-74
2022/09/20 13:01:07;;;;;;;11.00;1.87;;;15.60;70.00;;;;;;5048619;28;20477;-76
2022/09/20 13:03:43;;;;;;;8.10;2.10;;;15.60;70.10;;;;;;5050295;28;20852;-75
2022/09/20 13:06:25;;;;;;;33.80;5.80;;;15.60;70.10;;;;;;5047629;28;21260;-75
2022/09/20 13:09:04;;;;;;;10.47;2.77;;;15.50;69.90;;;;;;5045922;28;20464;-75
2022/09/20 13:11:39;;;;;;;27.57;3.57;;;15.50;70.00;;;;;;5036350;28;20444;-75
2022/09/20 13:14:12;;;;;;;72.13;6.80;;;15.40;70.00;;;;;;5047702;28;20470;-74
2022/09/20 13:16:52;;;;;;;78.73;8.50;;;15.40;70.10;;;;;;5043869;28;20483;-74
2022/09/20 13:19:24;;;;;;;53.43;7.50;;;15.40;70.10;;;;;;5047425;28;20887;-74
2022/09/20 13:21:56;;;;;;;54.03;5.23;;;15.40;70.40;;;;;;5046240;28;20459;-75
2022/09/20 13:24:27;;;;;;;8.50;2.30;;;15.40;70.40;;;;;;5048152;28;20490;-74
2022/09/20 13:27:01;;;;;;;12.43;2.47;;;15.50;70.40;;;;;;5048798;28;20518;-77
2022/09/20 13:29:33;;;;;;;8.60;1.63;;;15.60;70.40;;;;;;5044073;28;20459;-76
2022/09/20 13:32:16;;;;;;;11.53;1.60;;;15.60;70.20;;;;;;5033086;28;20471;-74
2022/09/20 13:34:44;;;;;;;5.10;1.60;;;15.60;70.10;;;;;;5042442;28;20502;-74
2022/09/20 13:37:19;;;;;;;7.13;1.57;;;15.70;70.00;;;;;;5046758;28;20450;-76
2022/09/20 13:39:54;;;;;;;8.63;1.63;;;15.70;69.90;;;;;;5047898;28;20452;-74
2022/09/20 13:42:22;;;;;;;6.33;1.40;;;15.70;69.40;;;;;;5051792;28;20463;-76
2022/09/20 13:44:52;;;;;;;8.07;1.80;;;15.80;69.60;;;;;;5043754;28;21274;-74
2022/09/20 13:47:25;;;;;;;8.57;2.20;;;15.80;69.70;;;;;;5047929;28;20456;-76
2022/09/20 13:50:00;;;;;;;7.67;1.80;;;15.90;69.40;;;;;;5047233;28;20484;-76